createdAt,value
2023-05-09T00:01:31.442Z,101671.25
2023-05-09T00:03:59.643Z,101672.09
2023-05-09T00:06:27.747Z,101667.69
2023-05-09T00:08:55.795Z,101661.69
2023-05-09T00:11:22.962Z,101659.91
2023-05-09T00:13:50.725Z,101654.66
2023-05-09T00:16:18.586Z,101649.41
2023-05-09T00:18:45.776Z,101645.03
2023-05-09T00:21:12.808Z,101654.59
2023-05-09T00:23:39.896Z,101652.03
2023-05-09T00:26:07.111Z,101646.78
2023-05-09T00:28:34.191Z,101644.16
2023-05-09T00:31:01.455Z,101649.34
2023-05-09T00:33:28.822Z,101649.31
2023-05-09T00:35:56.252Z,101651.94
2023-05-09T00:38:23.834Z,101649.31
2023-05-09T00:40:51.378Z,101647.56
2023-05-09T00:43:18.628Z,101650.19
2023-05-09T00:45:46.191Z,101641.44
2023-05-09T00:48:15.377Z,101636.22
2023-05-09T00:50:43.216Z,101631.84
2023-05-09T00:53:10.597Z,101638.84
2023-05-09T00:55:38.126Z,101636.22
2023-05-09T00:58:06.203Z,101629.25
2023-05-09T01:00:33.690Z,101631.84
2023-05-09T01:03:01.065Z,101630.16
2023-05-09T01:05:37.024Z,101627.50
2023-05-09T01:08:13.148Z,101625.81
2023-05-09T01:10:58.343Z,101620.56
2023-05-09T01:13:51.860Z,101612.75
2023-05-09T01:16:43.163Z,101603.19
2023-05-09T01:19:28.802Z,101601.41
2023-05-09T01:21:57.076Z,101602.28
2023-05-09T01:24:32.838Z,101596.16
2023-05-09T01:27:27.062Z,101590.88
2023-05-09T01:30:02.986Z,101590.88
2023-05-09T01:32:32.833Z,101586.47
2023-05-09T01:35:02.632Z,101581.25
2023-05-09T01:37:35.898Z,101581.28
2023-05-09T01:40:23.964Z,101583.00
2023-05-09T01:43:03.954Z,101577.78
2023-05-09T01:45:32.725Z,101583.81
2023-05-09T01:48:00.836Z,101575.97
2023-05-09T01:50:30.063Z,101571.59
2023-05-09T01:52:59.502Z,101565.44
2023-05-09T01:55:28.906Z,101569.84
2023-05-09T01:57:58.697Z,101562.88
2023-05-09T02:00:27.165Z,101568.94
2023-05-09T02:02:55.531Z,101562.78
2023-05-09T02:05:27.204Z,101567.19
2023-05-09T02:07:59.307Z,101570.66
2023-05-09T02:10:29.332Z,101556.75
2023-05-09T02:12:57.427Z,101557.66
2023-05-09T02:15:24.798Z,101550.69
2023-05-09T02:17:52.419Z,101549.78
2023-05-09T02:20:20.144Z,101548.03
2023-05-09T02:22:47.936Z,101551.50
2023-05-09T02:25:15.506Z,101542.81
2023-05-09T02:27:46.651Z,101546.34
2023-05-09T02:30:20.620Z,101535.00
2023-05-09T02:32:50.569Z,101529.78
2023-05-09T02:35:18.785Z,101540.22
2023-05-09T02:37:47.013Z,101532.38
2023-05-09T02:40:14.742Z,101526.22
2023-05-09T02:42:41.936Z,101527.13
2023-05-09T02:45:10.555Z,101529.69
2023-05-09T02:47:38.496Z,101532.31
2023-05-09T02:50:06.684Z,101537.50
2023-05-09T02:52:33.839Z,101524.41
2023-05-09T02:55:00.882Z,101532.28
2023-05-09T02:57:27.969Z,101523.56
2023-05-09T02:59:55.138Z,101519.19
2023-05-09T03:02:23.770Z,101522.69
2023-05-09T03:04:50.985Z,101518.34
2023-05-09T03:07:18.090Z,101522.69
2023-05-09T03:09:45.162Z,101509.63
2023-05-09T03:12:12.213Z,101510.47
2023-05-09T03:14:39.327Z,101511.31
2023-05-09T03:17:06.433Z,101505.25
2023-05-09T03:19:33.652Z,101506.09
2023-05-09T03:22:00.872Z,101504.34
2023-05-09T03:24:30.787Z,101499.16
2023-05-09T03:26:57.833Z,101494.81
2023-05-09T03:29:25.931Z,101488.69
2023-05-09T03:31:53.162Z,101489.50
2023-05-09T03:34:20.373Z,101486.00
2023-05-09T03:36:47.439Z,101480.84
2023-05-09T03:39:14.454Z,101475.56
2023-05-09T03:41:43.616Z,101464.31
2023-05-09T03:44:10.717Z,101461.69
2023-05-09T03:46:37.802Z,101462.59
2023-05-09T03:49:05.120Z,101460.91
2023-05-09T03:51:32.665Z,101441.75
2023-05-09T03:53:59.997Z,101458.28
2023-05-09T03:56:27.210Z,101449.63
2023-05-09T03:58:54.288Z,101439.19
2023-05-09T04:01:21.358Z,101432.25
2023-05-09T04:03:48.404Z,101434.88
2023-05-09T04:06:15.998Z,101429.63
2023-05-09T04:08:43.167Z,101433.97
2023-05-09T04:11:10.355Z,101431.34
2023-05-09T04:13:37.482Z,101436.59
2023-05-09T04:16:05.057Z,101432.22
2023-05-09T04:18:32.124Z,101437.34
2023-05-09T04:20:59.130Z,101439.16
2023-05-09T04:23:26.201Z,101435.66
2023-05-09T04:25:54.314Z,101433.09
2023-05-09T04:28:21.431Z,101432.25
2023-05-09T04:30:48.553Z,101438.34
2023-05-09T04:33:15.982Z,101436.59
2023-05-09T04:35:43.126Z,101440.94
2023-05-09T04:38:10.358Z,101438.25
2023-05-09T04:40:37.536Z,101431.28
2023-05-09T04:43:05.213Z,101433.94
2023-05-09T04:45:32.303Z,101433.09
2023-05-09T04:47:59.393Z,101427.94
2023-05-09T04:50:26.547Z,101427.09
2023-05-09T04:52:53.511Z,101414.03
2023-05-09T04:55:20.568Z,101407.13
2023-05-09T04:57:47.683Z,101403.63
2023-05-09T05:00:17.076Z,101403.63
2023-05-09T05:02:44.217Z,101390.59
2023-05-09T05:05:12.634Z,101394.94
2023-05-09T05:07:39.907Z,101399.25
2023-05-09T05:10:07.532Z,101395.81
2023-05-09T05:12:34.676Z,101401.00
2023-05-09T05:15:02.077Z,101394.91
2023-05-09T05:17:29.596Z,101389.69
2023-05-09T05:19:56.870Z,101388.00
2023-05-09T05:22:24.300Z,101381.06
2023-05-09T05:24:51.375Z,101384.56
2023-05-09T05:27:18.488Z,101384.66
2023-05-09T05:29:45.969Z,101371.66
2023-05-09T05:32:13.094Z,101362.22
2023-05-09T05:34:40.213Z,101370.09
2023-05-09T05:37:07.362Z,101362.31
2023-05-09T05:39:34.458Z,101356.25
2023-05-09T05:42:01.926Z,101361.56
2023-05-09T05:44:29.089Z,101350.22
2023-05-09T05:46:56.205Z,101358.13
2023-05-09T05:49:25.047Z,101358.09
2023-05-09T05:51:52.174Z,101362.53
2023-05-09T05:54:19.257Z,101354.72
2023-05-09T05:56:46.771Z,101346.06
2023-05-09T05:59:13.809Z,101333.06
2023-05-09T06:01:41.221Z,101336.53
2023-05-09T06:04:08.507Z,101334.81
2023-05-09T06:06:36.378Z,101337.44
2023-05-09T06:09:03.478Z,101330.47
2023-05-09T06:11:30.553Z,101336.59
2023-05-09T06:13:57.656Z,101336.59
2023-05-09T06:16:24.902Z,101332.25
2023-05-09T06:18:54.890Z,101339.22
2023-05-09T06:21:23.216Z,101331.38
2023-05-09T06:24:02.066Z,101322.69
2023-05-09T06:26:36.234Z,101315.69
2023-05-09T06:29:04.523Z,101320.03
2023-05-09T06:31:31.791Z,101313.06
2023-05-09T06:33:58.894Z,101313.94
2023-05-09T06:36:26.213Z,101308.72
2023-05-09T06:38:54.104Z,101308.72
2023-05-09T06:41:21.795Z,101297.41
2023-05-09T06:43:49.901Z,101301.78
2023-05-09T06:46:17.211Z,101289.59
2023-05-09T06:48:44.613Z,101293.94
2023-05-09T06:51:11.655Z,101293.09
2023-05-09T06:53:38.673Z,101283.53
2023-05-09T06:56:06.925Z,101282.69
2023-05-09T06:58:34.098Z,101273.09
2023-05-09T07:01:01.629Z,101281.81
2023-05-09T07:03:28.759Z,101278.31
2023-05-09T07:05:58.794Z,101265.25
2023-05-09T07:08:26.708Z,101280.94
2023-05-09T07:10:53.849Z,101277.47
2023-05-09T07:13:21.035Z,101273.09
2023-05-09T07:15:48.145Z,101274.84
2023-05-09T07:18:15.814Z,101247.81
2023-05-09T07:20:42.922Z,101268.75
2023-05-09T07:23:09.952Z,101268.72
2023-05-09T07:25:37.065Z,101263.53
2023-05-09T07:28:04.347Z,101263.53
2023-05-09T07:30:31.452Z,101264.38
2023-05-09T07:32:58.587Z,101257.44
2023-05-09T07:35:26.354Z,101260.91
2023-05-09T07:37:53.662Z,101254.84
2023-05-09T07:40:20.817Z,101252.22
2023-05-09T07:42:49.925Z,101256.56
2023-05-09T07:45:18.357Z,101251.34
2023-05-09T07:47:47.233Z,101246.13
2023-05-09T07:50:14.288Z,101246.97
2023-05-09T07:52:41.432Z,101245.22
2023-05-09T07:55:09.053Z,101246.97
2023-05-09T07:57:37.089Z,101246.09
2023-05-09T08:00:06.875Z,101239.13
2023-05-09T08:02:34.043Z,101239.16
2023-05-09T08:05:01.769Z,101231.28
2023-05-09T08:07:28.888Z,101232.19
2023-05-09T08:09:56.066Z,101228.69
2023-05-09T08:12:23.105Z,101233.94
2023-05-09T08:14:50.266Z,101218.25
2023-05-09T08:17:17.600Z,101211.25
2023-05-09T08:19:44.686Z,101212.13
2023-05-09T08:22:18.633Z,101202.56
2023-05-09T08:24:46.972Z,101209.53
2023-05-09T08:27:15.780Z,101206.91
2023-05-09T08:29:43.607Z,101194.72
2023-05-09T08:32:10.727Z,101197.34
2023-05-09T08:34:37.850Z,101198.19
2023-05-09T08:37:05.289Z,101188.63
2023-05-09T08:39:34.787Z,101192.13
2023-05-09T08:42:02.498Z,101186.03
2023-05-09T08:44:32.121Z,101172.97
2023-05-09T08:47:00.836Z,101186.91
2023-05-09T08:49:28.711Z,101185.16
2023-05-09T08:51:57.019Z,101182.56
2023-05-09T08:54:24.898Z,101182.56
2023-05-09T08:56:52.244Z,101171.25
2023-05-09T08:59:19.630Z,101173.88
2023-05-09T09:01:47.446Z,101170.38
2023-05-09T09:04:14.883Z,101156.44
2023-05-09T09:06:42.650Z,101167.75
2023-05-09T09:09:11.879Z,101167.75
2023-05-09T09:11:40.665Z,101166.88
2023-05-09T09:14:20.180Z,101161.66
2023-05-09T09:16:49.749Z,101162.53
2023-05-09T09:19:18.044Z,101164.28
2023-05-09T09:21:47.493Z,101156.44
2023-05-09T09:24:15.553Z,101155.56
2023-05-09T09:26:47.846Z,101158.16
2023-05-09T09:29:16.230Z,101149.47
2023-05-09T09:31:48.163Z,101145.09
2023-05-09T09:34:21.336Z,101147.72
2023-05-09T09:36:49.138Z,101146.84
2023-05-09T09:39:16.704Z,101141.59
2023-05-09T09:41:44.920Z,101142.50
2023-05-09T09:44:14.619Z,101138.13
2023-05-09T09:46:52.646Z,101138.16
2023-05-09T09:49:25.778Z,101137.28
2023-05-09T09:51:54.752Z,101133.81
2023-05-09T09:54:22.638Z,101126.81
2023-05-09T09:56:56.471Z,101126.84
2023-05-09T09:59:25.744Z,101129.44
2023-05-09T10:02:04.017Z,101126.84
2023-05-09T10:04:41.730Z,101119.88
2023-05-09T10:07:14.353Z,101124.22
2023-05-09T10:09:43.710Z,101126.84
2023-05-09T10:12:11.893Z,101125.97
2023-05-09T10:14:42.529Z,101125.97
2023-05-09T10:17:13.549Z,101129.47
2023-05-09T10:19:46.059Z,101126.84
2023-05-09T10:22:16.066Z,101121.66
2023-05-09T10:24:57.957Z,101119.03
2023-05-09T10:27:28.796Z,101114.66
2023-05-09T10:30:08.744Z,101112.06
2023-05-09T10:32:38.556Z,101119.03
2023-05-09T10:35:08.438Z,101114.69
2023-05-09T10:37:35.830Z,101101.63
2023-05-09T10:40:05.442Z,101092.91
2023-05-09T10:42:36.555Z,101098.16
2023-05-09T10:45:03.731Z,101093.78
2023-05-09T10:47:33.245Z,101086.81
2023-05-09T10:50:00.697Z,101081.59
2023-05-09T10:53:07.373Z,101081.59
2023-05-09T10:55:53.080Z,101080.75
2023-05-09T10:58:21.747Z,101080.72
2023-05-09T11:00:49.786Z,101075.50
2023-05-09T11:03:20.936Z,101073.75
2023-05-09T11:05:50.382Z,101072.03
2023-05-09T11:08:26.276Z,101071.16
2023-05-09T11:10:58.176Z,101060.72
2023-05-09T11:13:26.281Z,101066.81
2023-05-09T11:15:59.089Z,101054.63
2023-05-09T11:18:26.431Z,101058.09
2023-05-09T11:20:53.854Z,101048.50
2023-05-09T11:23:25.470Z,101056.38
2023-05-09T11:25:53.736Z,101052.00
2023-05-09T11:28:32.413Z,101048.53
2023-05-09T11:31:12.676Z,101043.28
2023-05-09T11:33:40.970Z,101043.28
2023-05-09T11:36:30.068Z,101033.72
2023-05-09T11:39:11.506Z,101036.34
2023-05-09T11:41:48.781Z,101025.88
2023-05-09T11:44:20.969Z,101020.66
2023-05-09T11:46:49.223Z,101017.19
2023-05-09T11:49:17.206Z,101013.75
2023-05-09T11:51:44.419Z,101013.75
2023-05-09T11:54:13.630Z,101012.00
2023-05-09T11:56:42.026Z,101011.13
2023-05-09T11:59:10.544Z,101006.75
2023-05-09T12:01:37.818Z,101019.00
2023-05-09T12:04:08.675Z,101003.28
2023-05-09T12:06:37.026Z,100998.06
2023-05-09T12:09:04.179Z,101000.69
2023-05-09T12:11:32.407Z,101002.44
2023-05-09T12:13:59.601Z,101002.44
2023-05-09T12:16:26.871Z,101003.28
2023-05-09T12:18:54.742Z,100995.47
2023-05-09T12:21:22.105Z,100999.81
2023-05-09T12:23:51.232Z,100998.06
2023-05-09T12:26:22.146Z,101002.44
2023-05-09T12:28:49.977Z,100989.38
2023-05-09T12:31:17.592Z,100992.84
2023-05-09T12:33:44.805Z,100979.81
2023-05-09T12:36:13.718Z,100994.59
2023-05-09T12:38:41.198Z,100979.81
2023-05-09T12:41:18.851Z,100982.41
2023-05-09T12:43:57.166Z,100976.34
2023-05-09T12:46:24.372Z,100977.22
2023-05-09T12:48:51.764Z,100971.13
2023-05-09T12:51:20.611Z,100965.91
2023-05-09T12:53:48.412Z,100959.84
2023-05-09T12:56:17.673Z,100958.94
2023-05-09T12:58:52.121Z,100961.56
2023-05-09T13:01:20.808Z,100947.63
2023-05-09T13:04:02.751Z,100945.03
2023-05-09T13:06:30.733Z,100946.78
2023-05-09T13:09:06.634Z,100951.09
2023-05-09T13:11:33.825Z,100938.06
2023-05-09T13:14:03.269Z,100939.81
2023-05-09T13:16:30.431Z,100939.78
2023-05-09T13:18:58.074Z,100932.81
2023-05-09T13:21:25.318Z,100929.34
2023-05-09T13:23:52.632Z,100927.63
2023-05-09T13:26:19.850Z,100918.94
2023-05-09T13:28:47.582Z,100918.94
2023-05-09T13:31:14.794Z,100923.28
2023-05-09T13:33:41.952Z,100911.09
2023-05-09T13:36:09.101Z,100905.88
2023-05-09T13:38:40.430Z,100908.50
2023-05-09T13:41:08.310Z,100903.25
2023-05-09T13:43:37.156Z,100903.25
2023-05-09T13:46:04.243Z,100900.66
2023-05-09T13:48:42.383Z,100894.53
2023-05-09T14:37:14.088Z,100858.03
2023-05-09T14:47:13.106Z,100851.06
2023-05-09T14:54:04.456Z,100845.84
2023-05-09T14:56:31.804Z,100836.28
2023-05-09T14:58:58.948Z,100846.72
2023-05-09T15:01:26.143Z,100840.63
2023-05-09T15:03:53.412Z,100831.94
2023-05-09T15:06:20.767Z,100829.31
2023-05-09T15:08:47.918Z,100825.84
2023-05-09T15:11:14.958Z,100832.78
2023-05-09T15:13:42.074Z,100824.06
2023-05-09T15:16:09.142Z,100824.97
2023-05-09T15:18:36.712Z,100814.53
2023-05-09T15:21:03.996Z,100821.50
2023-05-09T15:23:31.061Z,100813.69
2023-05-09T15:25:58.213Z,100813.69
2023-05-09T15:28:25.479Z,100813.69
2023-05-09T15:30:52.696Z,100811.94
2023-05-09T15:33:19.832Z,100807.56
2023-05-09T15:35:49.111Z,100812.78
2023-05-09T15:38:17.178Z,100811.91
2023-05-09T15:40:44.402Z,100803.19
2023-05-09T15:43:12.983Z,100805.84
2023-05-09T15:47:17.672Z,100803.34
2023-05-09T15:49:44.959Z,100806.81
2023-05-09T15:52:12.538Z,100803.31
2023-05-09T15:54:40.049Z,100807.63
2023-05-09T15:57:08.160Z,100802.41
2023-05-09T15:59:35.916Z,100805.00
2023-05-09T16:02:03.256Z,100800.69
2023-05-09T16:04:30.595Z,100788.53
2023-05-09T16:06:57.823Z,100793.75
2023-05-09T16:09:25.381Z,100789.41
2023-05-09T16:11:52.791Z,100785.94
2023-05-09T16:14:20.057Z,100785.97
2023-05-09T16:16:49.981Z,100781.63
2023-05-09T16:19:17.770Z,100774.72
2023-05-09T16:21:47.715Z,100774.72
2023-05-09T16:24:14.887Z,100773.00
2023-05-09T16:26:41.994Z,100779.94
2023-05-09T16:29:09.911Z,100784.31
2023-05-09T16:31:37.361Z,100778.22
2023-05-09T16:34:04.711Z,100768.69
2023-05-09T16:36:32.819Z,100766.06
2023-05-09T16:38:59.993Z,100766.09
2023-05-09T16:41:27.196Z,100763.50
2023-05-09T16:43:54.415Z,100765.22
2023-05-09T16:46:21.692Z,100766.94
2023-05-09T16:48:51.735Z,100757.38
2023-05-09T16:51:18.788Z,100755.66
2023-05-09T16:53:46.067Z,100755.63
2023-05-09T16:56:13.228Z,100749.53
2023-05-09T16:58:40.336Z,100746.97
2023-05-09T17:01:07.440Z,100748.69
2023-05-09T17:03:34.673Z,100743.47
2023-05-09T17:06:01.874Z,100737.41
2023-05-09T17:08:29.768Z,100743.47
2023-05-09T17:10:57.624Z,100746.09
2023-05-09T17:13:24.907Z,100733.91
2023-05-09T17:15:52.700Z,100736.50
2023-05-09T17:18:33.396Z,100733.03
2023-05-09T17:21:05.057Z,100740.84
2023-05-09T17:23:32.448Z,100740.84
2023-05-09T17:25:59.598Z,100735.63
2023-05-09T17:28:26.956Z,100734.78
2023-05-09T17:30:54.081Z,100735.63
2023-05-09T17:33:21.221Z,100732.16
2023-05-09T17:35:49.570Z,100733.88
2023-05-09T17:38:17.360Z,100733.00
2023-05-09T17:40:44.942Z,100730.41
2023-05-09T17:43:13.321Z,100728.69
2023-05-09T17:45:40.421Z,100733.00
2023-05-09T17:48:08.088Z,100726.97
2023-05-09T17:50:35.267Z,100729.56
2023-05-09T17:53:02.564Z,100731.28
2023-05-09T17:55:30.373Z,100729.56
2023-05-09T17:57:57.422Z,100723.47
2023-05-09T18:00:24.523Z,100726.09
2023-05-09T18:02:51.743Z,100725.22
2023-05-09T18:05:18.873Z,100733.03
2023-05-09T18:07:46.007Z,100730.44
2023-05-09T18:10:13.534Z,100726.06
2023-05-09T18:12:40.922Z,100725.19
2023-05-09T18:15:08.559Z,100726.09
2023-05-09T18:17:36.057Z,100726.09
2023-05-09T18:20:05.031Z,100721.72
2023-05-09T18:22:32.089Z,100727.81
2023-05-09T18:24:59.383Z,100728.69
2023-05-09T18:27:27.200Z,100723.47
2023-05-09T18:29:54.346Z,100721.72
2023-05-09T18:32:21.878Z,100720.88
2023-05-09T18:34:49.390Z,100719.97
2023-05-09T18:37:17.116Z,100720.84
2023-05-09T18:39:44.775Z,100722.59
2023-05-09T18:42:12.942Z,100725.19
2023-05-09T18:44:41.690Z,100722.59
2023-05-09T18:47:08.769Z,100725.22
2023-05-09T18:49:36.172Z,100726.03
2023-05-09T18:52:03.458Z,100726.06
2023-05-09T18:54:30.703Z,100726.06
2023-05-09T18:56:58.077Z,100728.69
2023-05-09T18:59:25.165Z,100727.81
2023-05-09T19:01:52.384Z,100726.09
2023-05-09T19:04:19.949Z,100726.97
2023-05-09T19:06:47.266Z,100732.16
2023-05-09T19:09:14.450Z,100722.59
2023-05-09T19:11:41.935Z,100725.22
2023-05-09T19:14:09.127Z,100720.00
2023-05-09T19:16:36.363Z,100716.53
2023-05-09T19:19:03.484Z,100726.09
2023-05-09T19:21:30.663Z,100727.84
2023-05-09T19:23:57.767Z,100727.84
2023-05-09T19:26:24.881Z,100727.00
2023-05-09T19:28:51.976Z,100734.81
2023-05-09T19:31:20.461Z,100732.22
2023-05-09T19:33:47.953Z,100736.53
2023-05-09T19:36:15.107Z,100727.84
2023-05-09T19:38:42.297Z,100733.06
2023-05-09T19:41:10.867Z,100738.28
2023-05-09T19:43:37.983Z,100740.91
2023-05-09T19:46:05.173Z,100741.75
2023-05-09T19:48:32.298Z,100738.25
2023-05-09T19:50:59.438Z,100732.19
2023-05-09T19:53:26.658Z,100736.53
2023-05-09T19:55:53.693Z,100737.41
2023-05-09T19:58:20.893Z,100746.09
2023-05-09T20:00:48.557Z,100745.25
2023-05-09T20:03:15.803Z,100738.31
2023-05-09T20:05:43.188Z,100755.69
2023-05-09T20:08:10.493Z,100758.22
2023-05-09T20:10:37.620Z,100753.03
2023-05-09T20:13:04.983Z,100753.88
2023-05-09T20:15:32.345Z,100755.63
2023-05-09T20:18:03.238Z,100759.94
2023-05-09T20:20:33.592Z,100757.34
2023-05-09T20:23:00.761Z,100757.34
2023-05-09T20:25:27.927Z,100755.56
2023-05-09T20:27:55.023Z,100759.03
2023-05-09T20:30:22.229Z,100755.53
2023-05-09T20:32:49.465Z,100762.50
2023-05-09T20:35:17.293Z,100768.56
2023-05-09T20:37:44.371Z,100764.19
2023-05-09T20:40:12.236Z,100765.03
2023-05-09T20:42:39.310Z,100762.44
2023-05-09T20:45:07.740Z,100763.31
2023-05-09T20:47:35.231Z,100771.13
2023-05-09T20:50:02.379Z,100770.22
2023-05-09T20:52:29.457Z,100773.69
2023-05-09T20:54:56.657Z,100776.28
2023-05-09T20:57:23.801Z,100779.78
2023-05-09T20:59:50.952Z,100785.84
2023-05-09T21:02:18.073Z,100785.00
2023-05-09T21:04:45.257Z,100776.25
2023-05-09T21:07:12.458Z,100779.78
2023-05-09T21:09:39.704Z,100778.91
2023-05-09T21:12:09.190Z,100778.03
2023-05-09T21:14:37.667Z,100766.72
2023-05-09T21:17:05.466Z,100768.50
2023-05-09T21:19:34.143Z,100776.28
2023-05-09T21:22:01.601Z,100775.34
2023-05-09T21:24:28.787Z,100778.81
2023-05-09T21:26:56.143Z,100773.63
2023-05-09T21:29:23.221Z,100771.81
2023-05-09T21:31:50.343Z,100768.34
2023-05-09T21:34:18.723Z,100769.22
2023-05-09T21:36:46.136Z,100767.50
2023-05-09T21:39:13.323Z,100759.72
2023-05-09T21:41:42.659Z,100756.22
2023-05-09T21:44:11.251Z,100758.84
2023-05-09T21:46:38.540Z,100757.13
2023-05-09T21:49:06.561Z,100764.09
2023-05-09T21:51:34.231Z,100756.25
2023-05-09T21:54:01.990Z,100756.31
2023-05-09T21:56:29.539Z,100752.81
2023-05-09T21:58:56.687Z,100748.53
2023-05-09T22:01:23.888Z,100744.19
2023-05-09T22:03:51.692Z,100737.25
2023-05-09T22:06:18.946Z,100732.97
2023-05-09T22:08:46.167Z,100747.69
2023-05-09T22:11:14.761Z,100742.50
2023-05-09T22:13:42.425Z,100739.00
2023-05-09T22:16:09.756Z,100743.34
2023-05-09T22:18:37.145Z,100741.63
2023-05-09T22:21:05.227Z,100741.63
2023-05-09T22:23:32.300Z,100742.53
2023-05-09T22:25:59.314Z,100739.91
2023-05-09T22:28:26.379Z,100739.91
2023-05-09T22:30:53.419Z,100735.59
2023-05-09T22:33:20.473Z,100734.72
2023-05-09T22:35:47.908Z,100733.88
2023-05-09T22:38:15.147Z,100736.47
2023-05-09T22:40:42.330Z,100734.72
2023-05-09T22:43:10.847Z,100727.81
2023-05-09T22:45:41.011Z,100729.53
2023-05-09T22:48:08.364Z,100725.22
2023-05-09T22:50:36.020Z,100734.78
2023-05-09T22:53:03.090Z,100731.31
2023-05-09T22:55:30.379Z,100736.50
2023-05-09T22:57:57.378Z,100731.28
2023-05-09T23:00:24.523Z,100741.72
2023-05-09T23:02:51.777Z,100733.88
2023-05-09T23:05:18.964Z,100736.50
2023-05-09T23:07:46.190Z,100739.09
2023-05-09T23:10:13.412Z,100738.22
2023-05-09T23:12:40.611Z,100730.41
2023-05-09T23:15:08.464Z,100739.13
2023-05-09T23:17:35.995Z,100735.63
2023-05-09T23:20:04.058Z,100740.88
2023-05-09T23:22:31.165Z,100743.44
2023-05-09T23:25:00.751Z,100740.88
2023-05-09T23:27:28.350Z,100730.44
2023-05-09T23:29:55.382Z,100739.97
2023-05-09T23:32:22.523Z,100739.94
2023-05-09T23:34:49.640Z,100739.09
2023-05-09T23:37:17.657Z,100733.00
2023-05-09T23:39:44.780Z,100736.47
2023-05-09T23:42:12.386Z,100732.16
2023-05-09T23:44:39.591Z,100731.25
2023-05-09T23:47:06.997Z,100724.34
2023-05-09T23:49:34.152Z,100729.53
2023-05-09T23:52:01.655Z,100725.19
2023-05-09T23:54:28.790Z,100731.25
2023-05-09T23:56:59.004Z,100731.28
2023-05-09T23:59:26.128Z,100728.66
